sensor_id;sensor_type;location;lat;lon;timestamp;pressure;altitude;pressure_sealevel;temperature;humidity
31044;BME280;17710;52.520;13.352;2023-05-08T00:01:20;102310.91;;;14.00;48.08
31044;BME280;17710;52.520;13.352;2023-05-08T00:03:47;102311.06;;;13.93;48.40
31044;BME280;17710;52.520;13.352;2023-05-08T00:06:13;102311.63;;;14.06;48.13
31044;BME280;17710;52.520;13.352;2023-05-08T00:08:41;102308.78;;;14.14;47.87
31044;BME280;17710;52.520;13.352;2023-05-08T00:11:08;102309.16;;;13.98;48.43
31044;BME280;17710;52.520;13.352;2023-05-08T00:13:34;102311.72;;;14.03;48.05
31044;BME280;17710;52.520;13.352;2023-05-08T00:16:01;102314.28;;;14.06;48.15
31044;BME280;17710;52.520;13.352;2023-05-08T00:18:27;102311.41;;;14.15;47.90
31044;BME280;17710;52.520;13.352;2023-05-08T00:20:54;102317.44;;;14.22;47.88
31044;BME280;17710;52.520;13.352;2023-05-08T00:23:21;102315.75;;;14.18;47.93
31044;BME280;17710;52.520;13.352;2023-05-08T00:25:48;102322.28;;;14.05;48.33
31044;BME280;17710;52.520;13.352;2023-05-08T00:28:15;102321.44;;;14.04;48.34
31044;BME280;17710;52.520;13.352;2023-05-08T00:30:41;102319.13;;;13.90;48.86
31044;BME280;17710;52.520;13.352;2023-05-08T00:33:10;102319.94;;;13.92;48.75
31044;BME280;17710;52.520;13.352;2023-05-08T00:35:36;102319.13;;;13.90;48.50
31044;BME280;17710;52.520;13.352;2023-05-08T00:38:05;102332.31;;;13.93;48.67
31044;BME280;17710;52.520;13.352;2023-05-08T00:40:31;102326.22;;;13.90;48.83
31044;BME280;17710;52.520;13.352;2023-05-08T00:42:59;102331.41;;;13.94;48.83
31044;BME280;17710;52.520;13.352;2023-05-08T00:45:31;102343.34;;;13.77;49.29
31044;BME280;17710;52.520;13.352;2023-05-08T00:47:58;102332.97;;;14.03;48.61
31044;BME280;17710;52.520;13.352;2023-05-08T00:50:24;102336.69;;;13.96;48.83
31044;BME280;17710;52.520;13.352;2023-05-08T00:52:51;102340.72;;;13.75;49.28
31044;BME280;17710;52.520;13.352;2023-05-08T00:55:18;102339.66;;;13.82;49.13
31044;BME280;17710;52.520;13.352;2023-05-08T00:57:46;102336.41;;;13.71;49.45
31044;BME280;17710;52.520;13.352;2023-05-08T01:00:15;102339.31;;;13.59;49.76
31044;BME280;17710;52.520;13.352;2023-05-08T01:02:43;102340.41;;;13.52;50.13
31044;BME280;17710;52.520;13.352;2023-05-08T01:05:10;102350.16;;;13.50;50.11
31044;BME280;17710;52.520;13.352;2023-05-08T01:07:36;102340.63;;;13.40;50.16
31044;BME280;17710;52.520;13.352;2023-05-08T01:10:04;102343.66;;;13.25;50.68
31044;BME280;17710;52.520;13.352;2023-05-08T01:12:43;102340.38;;;13.10;51.27
31044;BME280;17710;52.520;13.352;2023-05-08T01:15:17;102338.38;;;13.23;50.56
31044;BME280;17710;52.520;13.352;2023-05-08T01:17:53;102346.31;;;13.25;50.45
31044;BME280;17710;52.520;13.352;2023-05-08T01:20:31;102343.06;;;13.07;50.81
31044;BME280;17710;52.520;13.352;2023-05-08T01:23:37;102345.56;;;13.18;50.73
31044;BME280;17710;52.520;13.352;2023-05-08T01:26:40;102352.19;;;12.94;51.38
31044;BME280;17710;52.520;13.352;2023-05-08T01:32:11;102342.56;;;12.89;51.36
31044;BME280;17710;52.520;13.352;2023-05-08T01:34:45;102340.75;;;12.92;51.06
31044;BME280;17710;52.520;13.352;2023-05-08T01:37:16;102343.81;;;13.15;50.23
31044;BME280;17710;52.520;13.352;2023-05-08T01:39:50;102343.19;;;13.01;50.84
31044;BME280;17710;52.520;13.352;2023-05-08T01:42:23;102341.16;;;13.15;50.39
31044;BME280;17710;52.520;13.352;2023-05-08T01:44:53;102346.00;;;12.94;50.91
31044;BME280;17710;52.520;13.352;2023-05-08T01:47:27;102358.38;;;12.95;50.90
31044;BME280;17710;52.520;13.352;2023-05-08T01:49:59;102356.78;;;12.86;51.10
31044;BME280;17710;52.520;13.352;2023-05-08T01:52:33;102352.25;;;12.91;50.83
31044;BME280;17710;52.520;13.352;2023-05-08T01:55:03;102351.44;;;12.88;50.99
31044;BME280;17710;52.520;13.352;2023-05-08T01:57:32;102358.63;;;12.83;50.79
31044;BME280;17710;52.520;13.352;2023-05-08T02:00:02;102353.22;;;12.87;50.85
31044;BME280;17710;52.520;13.352;2023-05-08T02:02:32;102357.19;;;12.66;51.09
31044;BME280;17710;52.520;13.352;2023-05-08T02:05:01;102353.38;;;12.80;51.00
31044;BME280;17710;52.520;13.352;2023-05-08T02:07:29;102351.41;;;12.89;51.01
31044;BME280;17710;52.520;13.352;2023-05-08T02:09:58;102358.22;;;12.58;51.38
31044;BME280;17710;52.520;13.352;2023-05-08T02:12:26;102352.63;;;12.73;51.18
31044;BME280;17710;52.520;13.352;2023-05-08T02:14:55;102341.03;;;12.78;50.87
31044;BME280;17710;52.520;13.352;2023-05-08T02:17:22;102346.88;;;12.94;50.58
31044;BME280;17710;52.520;13.352;2023-05-08T02:19:53;102348.72;;;12.92;50.53
31044;BME280;17710;52.520;13.352;2023-05-08T02:22:22;102351.13;;;12.58;51.33
31044;BME280;17710;52.520;13.352;2023-05-08T02:24:50;102345.59;;;12.70;51.20
31044;BME280;17710;52.520;13.352;2023-05-08T02:27:25;102346.38;;;12.74;50.84
31044;BME280;17710;52.520;13.352;2023-05-08T02:29:53;102346.31;;;12.78;50.88
31044;BME280;17710;52.520;13.352;2023-05-08T02:32:24;102345.69;;;12.66;51.04
31044;BME280;17710;52.520;13.352;2023-05-08T02:34:54;102352.91;;;12.58;51.06
31044;BME280;17710;52.520;13.352;2023-05-08T02:37:22;102345.84;;;12.57;51.08
31044;BME280;17710;52.520;13.352;2023-05-08T02:39:50;102345.72;;;12.63;51.05
31044;BME280;17710;52.520;13.352;2023-05-08T02:42:18;102332.22;;;12.76;50.61
31044;BME280;17710;52.520;13.352;2023-05-08T02:44:45;102338.91;;;12.94;50.01
31044;BME280;17710;52.520;13.352;2023-05-08T02:47:17;102338.22;;;12.86;50.12
31044;BME280;17710;52.520;13.352;2023-05-08T02:49:50;102345.44;;;12.80;50.20
31044;BME280;17710;52.520;13.352;2023-05-08T02:52:23;102346.28;;;12.80;50.27
31044;BME280;17710;52.520;13.352;2023-05-08T02:54:56;102341.91;;;12.79;50.24
31044;BME280;17710;52.520;13.352;2023-05-08T02:57:32;102341.66;;;12.91;50.42
31044;BME280;17710;52.520;13.352;2023-05-08T03:00:04;102341.06;;;12.75;50.36
31044;BME280;17710;52.520;13.352;2023-05-08T03:02:38;102345.25;;;12.87;50.19
31044;BME280;17710;52.520;13.352;2023-05-08T03:05:11;102352.25;;;12.93;49.92
31044;BME280;17710;52.520;13.352;2023-05-08T03:07:41;102347.84;;;12.90;49.90
31044;BME280;17710;52.520;13.352;2023-05-08T03:10:12;102346.00;;;12.94;49.57
31044;BME280;17710;52.520;13.352;2023-05-08T03:12:43;102347.72;;;12.96;49.34
31044;BME280;17710;52.520;13.352;2023-05-08T03:15:16;102351.25;;;12.97;49.46
31044;BME280;17710;52.520;13.352;2023-05-08T03:17:43;102347.97;;;12.86;49.65
31044;BME280;17710;52.520;13.352;2023-05-08T03:20:14;102344.31;;;12.90;49.77
31044;BME280;17710;52.520;13.352;2023-05-08T03:22:44;102353.25;;;12.86;49.73
31044;BME280;17710;52.520;13.352;2023-05-08T03:25:15;102349.81;;;12.81;49.72
31044;BME280;17710;52.520;13.352;2023-05-08T03:27:44;102355.00;;;12.39;50.45
31044;BME280;17710;52.520;13.352;2023-05-08T03:30:11;102350.38;;;12.52;50.60
31044;BME280;17710;52.520;13.352;2023-05-08T03:32:39;102353.81;;;12.55;50.37
31044;BME280;17710;52.520;13.352;2023-05-08T03:35:07;102346.59;;;12.65;50.32
31044;BME280;17710;52.520;13.352;2023-05-08T03:37:35;102354.53;;;12.65;50.01
31044;BME280;17710;52.520;13.352;2023-05-08T03:40:03;102359.25;;;12.48;50.46
31044;BME280;17710;52.520;13.352;2023-05-08T03:42:31;102356.44;;;12.57;50.20
31044;BME280;17710;52.520;13.352;2023-05-08T03:44:58;102352.78;;;12.64;49.97
31044;BME280;17710;52.520;13.352;2023-05-08T03:47:26;102351.78;;;12.69;49.77
31044;BME280;17710;52.520;13.352;2023-05-08T03:49:53;102358.13;;;12.61;50.20
31044;BME280;17710;52.520;13.352;2023-05-08T03:52:19;102356.56;;;12.51;50.56
31044;BME280;17710;52.520;13.352;2023-05-08T03:54:45;102369.25;;;12.33;50.54
31044;BME280;17710;52.520;13.352;2023-05-08T03:57:13;102363.69;;;12.47;50.76
31044;BME280;17710;52.520;13.352;2023-05-08T03:59:43;102363.78;;;12.43;50.66
31044;BME280;17710;52.520;13.352;2023-05-08T04:02:18;102373.16;;;12.62;50.07
31044;BME280;17710;52.520;13.352;2023-05-08T04:04:52;102367.16;;;12.51;50.47
31044;BME280;17710;52.520;13.352;2023-05-08T04:07:24;102361.41;;;12.75;49.85
31044;BME280;17710;52.520;13.352;2023-05-08T04:09:58;102361.41;;;12.75;50.08
31044;BME280;17710;52.520;13.352;2023-05-08T04:12:32;102372.31;;;12.60;50.25
31044;BME280;17710;52.520;13.352;2023-05-08T04:15:05;102371.97;;;12.78;50.24
31044;BME280;17710;52.520;13.352;2023-05-08T04:17:36;102363.03;;;12.82;49.64
31044;BME280;17710;52.520;13.352;2023-05-08T04:20:06;102368.09;;;12.94;49.66
31044;BME280;17710;52.520;13.352;2023-05-08T04:22:34;102372.63;;;12.89;49.70
31044;BME280;17710;52.520;13.352;2023-05-08T04:25:06;102368.31;;;12.85;49.97
31044;BME280;17710;52.520;13.352;2023-05-08T04:27:36;102362.38;;;12.71;50.12
31044;BME280;17710;52.520;13.352;2023-05-08T04:30:04;102365.50;;;12.93;49.81
31044;BME280;17710;52.520;13.352;2023-05-08T04:32:31;102367.44;;;12.83;49.91
31044;BME280;17710;52.520;13.352;2023-05-08T04:34:59;102377.78;;;12.97;49.59
31044;BME280;17710;52.520;13.352;2023-05-08T04:37:26;102376.19;;;12.88;49.26
31044;BME280;17710;52.520;13.352;2023-05-08T04:39:53;102381.50;;;13.33;48.34
31044;BME280;17710;52.520;13.352;2023-05-08T04:42:20;102373.31;;;13.43;48.23
31044;BME280;17710;52.520;13.352;2023-05-08T04:44:48;102385.69;;;13.44;48.01
31044;BME280;17710;52.520;13.352;2023-05-08T04:47:17;102386.03;;;13.28;48.14
31044;BME280;17710;52.520;13.352;2023-05-08T04:49:44;102395.59;;;13.36;48.06
31044;BME280;17710;52.520;13.352;2023-05-08T04:52:11;102392.13;;;13.33;48.20
31044;BME280;17710;52.520;13.352;2023-05-08T04:54:37;102395.38;;;13.47;47.69
31044;BME280;17710;52.520;13.352;2023-05-08T04:57:04;102407.34;;;13.66;47.32
31044;BME280;17710;52.520;13.352;2023-05-08T04:59:31;102408.38;;;13.59;47.59
31044;BME280;17710;52.520;13.352;2023-05-08T05:01:59;102414.06;;;13.82;47.15
31044;BME280;17710;52.520;13.352;2023-05-08T05:04:26;102415.41;;;14.00;46.46
31044;BME280;17710;52.520;13.352;2023-05-08T05:06:55;102408.88;;;14.15;45.93
31044;BME280;17710;52.520;13.352;2023-05-08T05:09:21;102404.16;;;13.90;46.17
31044;BME280;17710;52.520;13.352;2023-05-08T05:11:49;102413.44;;;14.10;45.71
31044;BME280;17710;52.520;13.352;2023-05-08T05:14:15;102415.06;;;14.15;45.48
31044;BME280;17710;52.520;13.352;2023-05-08T05:16:42;102412.91;;;14.31;45.32
31044;BME280;17710;52.520;13.352;2023-05-08T05:19:09;102421.88;;;14.27;45.29
31044;BME280;17710;52.520;13.352;2023-05-08T05:21:36;102425.72;;;14.14;45.45
31044;BME280;17710;52.520;13.352;2023-05-08T05:24:04;102423.41;;;14.00;45.93
31044;BME280;17710;52.520;13.352;2023-05-08T05:26:30;102425.13;;;14.40;45.13
31044;BME280;17710;52.520;13.352;2023-05-08T05:28:57;102422.00;;;14.58;44.84
31044;BME280;17710;52.520;13.352;2023-05-08T05:31:23;102418.34;;;14.96;43.92
31044;BME280;17710;52.520;13.352;2023-05-08T05:33:50;102437.00;;;14.96;43.78
31044;BME280;17710;52.520;13.352;2023-05-08T05:36:17;102425.50;;;14.94;43.41
31044;BME280;17710;52.520;13.352;2023-05-08T05:38:44;102436.50;;;15.12;42.76
31044;BME280;17710;52.520;13.352;2023-05-08T05:41:11;102424.81;;;15.18;42.36
31044;BME280;17710;52.520;13.352;2023-05-08T05:43:37;102422.69;;;14.98;42.81
31044;BME280;17710;52.520;13.352;2023-05-08T05:46:04;102428.19;;;14.58;43.35
31044;BME280;17710;52.520;13.352;2023-05-08T05:48:31;102437.03;;;14.94;42.41
31044;BME280;17710;52.520;13.352;2023-05-08T05:50:57;102428.38;;;14.86;43.04
31044;BME280;17710;52.520;13.352;2023-05-08T05:53:25;102429.44;;;15.11;42.08
31044;BME280;17710;52.520;13.352;2023-05-08T05:55:51;102439.66;;;15.27;41.49
31044;BME280;17710;52.520;13.352;2023-05-08T05:58:18;102436.19;;;15.23;41.71
31044;BME280;17710;52.520;13.352;2023-05-08T06:00:45;102440.19;;;15.08;41.15
31044;BME280;17710;52.520;13.352;2023-05-08T06:03:13;102445.00;;;14.94;41.73
31044;BME280;17710;52.520;13.352;2023-05-08T06:05:39;102436.50;;;14.80;42.05
31044;BME280;17710;52.520;13.352;2023-05-08T06:08:06;102430.53;;;15.04;41.76
31044;BME280;17710;52.520;13.352;2023-05-08T06:10:34;102430.94;;;15.22;40.93
31044;BME280;17710;52.520;13.352;2023-05-08T06:13:01;102428.41;;;15.48;40.51
31044;BME280;17710;52.520;13.352;2023-05-08T06:15:27;102433.88;;;15.74;40.02
31044;BME280;17710;52.520;13.352;2023-05-08T06:17:54;102439.53;;;15.62;39.49
31044;BME280;17710;52.520;13.352;2023-05-08T06:20:20;102443.66;;;15.74;39.55
31044;BME280;17710;52.520;13.352;2023-05-08T06:22:47;102434.09;;;15.67;39.63
31044;BME280;17710;52.520;13.352;2023-05-08T06:25:13;102441.03;;;15.72;39.54
31044;BME280;17710;52.520;13.352;2023-05-08T06:27:43;102435.09;;;15.63;39.81
31044;BME280;17710;52.520;13.352;2023-05-08T06:30:10;102435.63;;;16.03;39.35
31044;BME280;17710;52.520;13.352;2023-05-08T06:32:36;102443.63;;;16.03;38.38
31044;BME280;17710;52.520;13.352;2023-05-08T06:35:07;102442.53;;;16.09;37.91
31044;BME280;17710;52.520;13.352;2023-05-08T06:37:33;102435.03;;;16.48;37.38
31044;BME280;17710;52.520;13.352;2023-05-08T06:40:00;102441.00;;;17.07;36.74
31044;BME280;17710;52.520;13.352;2023-05-08T06:42:26;102440.16;;;17.31;35.60
31044;BME280;17710;52.520;13.352;2023-05-08T06:44:54;102437.94;;;17.42;35.16
31044;BME280;17710;52.520;13.352;2023-05-08T06:47:20;102442.97;;;17.51;34.75
31044;BME280;17710;52.520;13.352;2023-05-08T06:49:47;102442.72;;;17.09;35.31
31044;BME280;17710;52.520;13.352;2023-05-08T06:52:13;102449.53;;;16.93;35.12
31044;BME280;17710;52.520;13.352;2023-05-08T06:54:40;102449.88;;;16.30;35.74
31044;BME280;17710;52.520;13.352;2023-05-08T06:57:06;102441.78;;;16.33;35.59
31044;BME280;17710;52.520;13.352;2023-05-08T06:59:33;102457.97;;;16.27;35.80
31044;BME280;17710;52.520;13.352;2023-05-08T07:02:01;102451.03;;;16.48;35.82
31044;BME280;17710;52.520;13.352;2023-05-08T07:04:27;102446.78;;;16.70;35.36
31044;BME280;17710;52.520;13.352;2023-05-08T07:06:54;102450.88;;;16.54;35.38
31044;BME280;17710;52.520;13.352;2023-05-08T07:09:20;102438.88;;;16.93;34.69
31044;BME280;17710;52.520;13.352;2023-05-08T07:11:47;102433.72;;;17.12;34.34
31044;BME280;17710;52.520;13.352;2023-05-08T07:14:13;102434.28;;;17.45;33.90
31044;BME280;17710;52.520;13.352;2023-05-08T07:16:40;102443.94;;;17.49;33.72
31044;BME280;17710;52.520;13.352;2023-05-08T07:19:08;102438.44;;;17.29;33.52
31044;BME280;17710;52.520;13.352;2023-05-08T07:21:35;102438.00;;;17.87;33.56
31044;BME280;17710;52.520;13.352;2023-05-08T07:24:01;102440.91;;;18.05;32.14
31044;BME280;17710;52.520;13.352;2023-05-08T07:26:28;102449.38;;;17.46;32.54
31044;BME280;17710;52.520;13.352;2023-05-08T07:28:54;102443.97;;;17.24;31.94
31044;BME280;17710;52.520;13.352;2023-05-08T07:31:21;102445.97;;;17.42;32.73
31044;BME280;17710;52.520;13.352;2023-05-08T07:33:47;102440.19;;;17.30;31.75
31044;BME280;17710;52.520;13.352;2023-05-08T07:36:15;102436.44;;;17.35;31.72
31044;BME280;17710;52.520;13.352;2023-05-08T07:38:41;102449.97;;;17.06;31.56
31044;BME280;17710;52.520;13.352;2023-05-08T07:41:08;102439.72;;;17.19;31.52
31044;BME280;17710;52.520;13.352;2023-05-08T07:43:34;102436.88;;;17.46;31.41
31044;BME280;17710;52.520;13.352;2023-05-08T07:46:01;102447.13;;;17.35;30.79
31044;BME280;17710;52.520;13.352;2023-05-08T07:48:28;102442.31;;;17.45;30.80
31044;BME280;17710;52.520;13.352;2023-05-08T07:50:54;102443.19;;;17.45;30.40
31044;BME280;17710;52.520;13.352;2023-05-08T07:53:22;102435.09;;;17.72;29.95
31044;BME280;17710;52.520;13.352;2023-05-08T07:55:48;102448.31;;;17.51;29.84
31044;BME280;17710;52.520;13.352;2023-05-08T07:58:14;102450.44;;;17.42;30.39
31044;BME280;17710;52.520;13.352;2023-05-08T08:00:41;102429.47;;;17.31;30.50
31044;BME280;17710;52.520;13.352;2023-05-08T08:03:08;102435.34;;;17.87;30.19
31044;BME280;17710;52.520;13.352;2023-05-08T08:05:35;102438.44;;;17.77;29.80
31044;BME280;17710;52.520;13.352;2023-05-08T08:08:01;102441.66;;;17.63;30.15
31044;BME280;17710;52.520;13.352;2023-05-08T08:10:30;102427.63;;;17.80;30.17
31044;BME280;17710;52.520;13.352;2023-05-08T08:12:56;102429.25;;;18.06;29.55
31044;BME280;17710;52.520;13.352;2023-05-08T08:15:23;102446.19;;;18.28;29.59
31044;BME280;17710;52.520;13.352;2023-05-08T08:17:49;102433.97;;;18.64;29.10
31044;BME280;17710;52.520;13.352;2023-05-08T08:20:16;102419.03;;;18.59;29.00
31044;BME280;17710;52.520;13.352;2023-05-08T08:22:42;102426.28;;;18.57;28.99
31044;BME280;17710;52.520;13.352;2023-05-08T08:25:09;102432.44;;;18.79;28.47
31044;BME280;17710;52.520;13.352;2023-05-08T08:27:37;102427.97;;;18.80;27.69
31044;BME280;17710;52.520;13.352;2023-05-08T08:30:04;102424.69;;;18.73;27.64
31044;BME280;17710;52.520;13.352;2023-05-08T08:32:31;102421.69;;;18.81;27.39
31044;BME280;17710;52.520;13.352;2023-05-08T08:34:57;102430.03;;;18.73;27.31
31044;BME280;17710;52.520;13.352;2023-05-08T08:37:24;102432.00;;;18.48;27.59
31044;BME280;17710;52.520;13.352;2023-05-08T08:39:53;102418.28;;;18.77;27.47
31044;BME280;17710;52.520;13.352;2023-05-08T08:42:19;102434.69;;;18.69;27.45
31044;BME280;17710;52.520;13.352;2023-05-08T08:44:48;102424.38;;;19.01;26.81
31044;BME280;17710;52.520;13.352;2023-05-08T08:47:15;102430.09;;;18.71;27.19
31044;BME280;17710;52.520;13.352;2023-05-08T08:49:46;102417.25;;;18.80;26.92
31044;BME280;17710;52.520;13.352;2023-05-08T08:52:21;102432.97;;;18.45;27.40
31044;BME280;17710;52.520;13.352;2023-05-08T08:54:54;102427.91;;;18.61;26.24
31044;BME280;17710;52.520;13.352;2023-05-08T08:57:22;102422.97;;;18.28;26.63
31044;BME280;17710;52.520;13.352;2023-05-08T08:59:52;102412.03;;;18.13;26.01
31044;BME280;17710;52.520;13.352;2023-05-08T09:02:21;102418.66;;;18.46;26.80
31044;BME280;17710;52.520;13.352;2023-05-08T09:04:48;102423.22;;;18.44;26.94
31044;BME280;17710;52.520;13.352;2023-05-08T09:07:16;102424.50;;;18.57;26.42
31044;BME280;17710;52.520;13.352;2023-05-08T09:09:43;102419.91;;;18.59;26.38
31044;BME280;17710;52.520;13.352;2023-05-08T09:12:11;102418.88;;;18.84;27.26
31044;BME280;17710;52.520;13.352;2023-05-08T09:14:38;102402.78;;;19.43;26.60
31044;BME280;17710;52.520;13.352;2023-05-08T09:17:06;102409.38;;;19.75;26.41
31044;BME280;17710;52.520;13.352;2023-05-08T09:19:32;102394.97;;;19.76;26.60
31044;BME280;17710;52.520;13.352;2023-05-08T09:22:00;102405.94;;;19.90;26.57
31044;BME280;17710;52.520;13.352;2023-05-08T09:24:53;102413.50;;;20.18;26.27
31044;BME280;17710;52.520;13.352;2023-05-08T09:27:27;102413.53;;;19.99;25.85
31044;BME280;17710;52.520;13.352;2023-05-08T09:30:02;102412.41;;;19.86;26.45
31044;BME280;17710;52.520;13.352;2023-05-08T09:32:30;102408.50;;;19.56;26.52
31044;BME280;17710;52.520;13.352;2023-05-08T09:34:57;102396.81;;;19.94;26.86
31044;BME280;17710;52.520;13.352;2023-05-08T09:37:25;102412.41;;;19.86;26.32
31044;BME280;17710;52.520;13.352;2023-05-08T09:39:51;102389.91;;;19.12;27.23
31044;BME280;17710;52.520;13.352;2023-05-08T09:42:18;102401.22;;;19.58;27.57
31044;BME280;17710;52.520;13.352;2023-05-08T09:44:46;102405.06;;;20.08;26.83
31044;BME280;17710;52.520;13.352;2023-05-08T09:47:14;102386.84;;;20.15;25.95
31044;BME280;17710;52.520;13.352;2023-05-08T09:49:56;102407.03;;;19.86;26.34
31044;BME280;17710;52.520;13.352;2023-05-08T09:52:23;102399.19;;;19.63;27.07
31044;BME280;17710;52.520;13.352;2023-05-08T09:54:56;102398.19;;;19.84;26.32
31044;BME280;17710;52.520;13.352;2023-05-08T09:57:23;102404.25;;;20.06;26.12
31044;BME280;17710;52.520;13.352;2023-05-08T09:59:49;102396.13;;;20.08;26.36
31044;BME280;17710;52.520;13.352;2023-05-08T10:02:16;102398.16;;;20.03;25.69
31044;BME280;17710;52.520;13.352;2023-05-08T10:04:44;102400.38;;;20.12;25.73
31044;BME280;17710;52.520;13.352;2023-05-08T10:07:12;102390.53;;;20.29;25.86
31044;BME280;17710;52.520;13.352;2023-05-08T10:09:38;102393.03;;;20.15;25.71
31044;BME280;17710;52.520;13.352;2023-05-08T10:12:05;102392.19;;;20.34;25.66
31044;BME280;17710;52.520;13.352;2023-05-08T10:14:33;102388.16;;;20.42;25.76
31044;BME280;17710;52.520;13.352;2023-05-08T10:17:04;102388.41;;;20.72;25.87
31044;BME280;17710;52.520;13.352;2023-05-08T10:19:34;102404.03;;;20.81;25.59
31044;BME280;17710;52.520;13.352;2023-05-08T10:22:04;102382.94;;;20.91;25.44
31044;BME280;17710;52.520;13.352;2023-05-08T10:24:33;102365.25;;;20.87;25.35
31044;BME280;17710;52.520;13.352;2023-05-08T10:27:10;102377.47;;;20.92;24.29
31044;BME280;17710;52.520;13.352;2023-05-08T10:29:45;102378.91;;;20.82;24.82
31044;BME280;17710;52.520;13.352;2023-05-08T10:32:14;102378.56;;;20.88;24.84
31044;BME280;17710;52.520;13.352;2023-05-08T10:34:43;102366.25;;;20.84;24.99
31044;BME280;17710;52.520;13.352;2023-05-08T10:37:11;102373.38;;;20.85;24.45
31044;BME280;17710;52.520;13.352;2023-05-08T10:39:41;102366.94;;;21.05;24.52
31044;BME280;17710;52.520;13.352;2023-05-08T10:42:08;102378.31;;;20.60;23.82
31044;BME280;17710;52.520;13.352;2023-05-08T10:44:35;102362.56;;;20.69;24.26
31044;BME280;17710;52.520;13.352;2023-05-08T10:47:08;102354.66;;;20.49;23.68
31044;BME280;17710;52.520;13.352;2023-05-08T10:49:42;102356.81;;;20.60;23.69
31044;BME280;17710;52.520;13.352;2023-05-08T10:52:16;102359.78;;;20.71;24.15
31044;BME280;17710;52.520;13.352;2023-05-08T10:55:06;102353.09;;;20.80;23.73
31044;BME280;17710;52.520;13.352;2023-05-08T10:57:35;102352.44;;;20.92;24.00
31044;BME280;17710;52.520;13.352;2023-05-08T11:00:01;102344.19;;;20.95;23.85
31044;BME280;17710;52.520;13.352;2023-05-08T11:02:29;102356.94;;;21.07;23.73
31044;BME280;17710;52.520;13.352;2023-05-08T11:05:13;102354.34;;;20.55;23.86
31044;BME280;17710;52.520;13.352;2023-05-08T11:07:52;102364.78;;;20.44;24.59
31044;BME280;17710;52.520;13.352;2023-05-08T11:10:20;102347.00;;;20.42;24.36
31044;BME280;17710;52.520;13.352;2023-05-08T11:12:48;102341.56;;;20.43;24.22
31044;BME280;17710;52.520;13.352;2023-05-08T11:15:15;102333.72;;;20.56;24.78
31044;BME280;17710;52.520;13.352;2023-05-08T11:17:52;102332.50;;;20.96;24.45
31044;BME280;17710;52.520;13.352;2023-05-08T11:20:21;102340.53;;;20.96;24.25
31044;BME280;17710;52.520;13.352;2023-05-08T11:22:48;102342.22;;;20.81;24.06
31044;BME280;17710;52.520;13.352;2023-05-08T11:25:15;102333.22;;;20.99;23.97
31044;BME280;17710;52.520;13.352;2023-05-08T11:30:43;102336.66;;;21.19;23.50
31044;BME280;17710;52.520;13.352;2023-05-08T11:33:14;102332.50;;;21.29;23.85
31044;BME280;17710;52.520;13.352;2023-05-08T11:35:44;102329.47;;;21.35;23.75
31044;BME280;17710;52.520;13.352;2023-05-08T11:38:15;102327.31;;;21.26;24.04
31044;BME280;17710;52.520;13.352;2023-05-08T11:40:53;102328.47;;;21.20;23.82
31044;BME280;17710;52.520;13.352;2023-05-08T11:46:34;102323.63;;;21.27;23.29
31044;BME280;17710;52.520;13.352;2023-05-08T11:49:01;102323.56;;;21.28;22.23
31044;BME280;17710;52.520;13.352;2023-05-08T11:51:30;102313.94;;;21.07;22.42
31044;BME280;17710;52.520;13.352;2023-05-08T11:53:58;102312.63;;;21.16;22.75
31044;BME280;17710;52.520;13.352;2023-05-08T11:56:25;102308.16;;;21.15;23.06
31044;BME280;17710;52.520;13.352;2023-05-08T11:59:00;102311.53;;;21.20;23.07
31044;BME280;17710;52.520;13.352;2023-05-08T12:01:29;102317.41;;;21.42;22.96
31044;BME280;17710;52.520;13.352;2023-05-08T12:04:00;102310.31;;;21.25;23.06
31044;BME280;17710;52.520;13.352;2023-05-08T12:06:26;102306.22;;;21.34;23.08
31044;BME280;17710;52.520;13.352;2023-05-08T12:08:53;102305.38;;;21.49;22.70
31044;BME280;17710;52.520;13.352;2023-05-08T12:11:21;102304.06;;;21.07;22.66
31044;BME280;17710;52.520;13.352;2023-05-08T12:13:49;102316.47;;;21.43;22.12
31044;BME280;17710;52.520;13.352;2023-05-08T12:16:16;102317.75;;;21.67;22.14
31044;BME280;17710;52.520;13.352;2023-05-08T12:18:44;102305.19;;;21.52;21.72
31044;BME280;17710;52.520;13.352;2023-05-08T12:21:10;102299.63;;;21.55;22.36
31044;BME280;17710;52.520;13.352;2023-05-08T12:23:37;102307.41;;;21.91;22.16
31044;BME280;17710;52.520;13.352;2023-05-08T12:26:03;102310.75;;;21.49;22.31
31044;BME280;17710;52.520;13.352;2023-05-08T12:28:30;102297.38;;;21.63;22.42
31044;BME280;17710;52.520;13.352;2023-05-08T12:30:57;102308.31;;;21.44;22.72
31044;BME280;17710;52.520;13.352;2023-05-08T12:33:24;102309.34;;;21.73;22.25
31044;BME280;17710;52.520;13.352;2023-05-08T12:35:52;102305.38;;;21.65;22.02
31044;BME280;17710;52.520;13.352;2023-05-08T12:38:24;102298.16;;;21.50;22.22
31044;BME280;17710;52.520;13.352;2023-05-08T12:40:51;102299.88;;;21.66;22.29
31044;BME280;17710;52.520;13.352;2023-05-08T12:43:20;102292.09;;;21.62;22.62
31044;BME280;17710;52.520;13.352;2023-05-08T12:45:49;102291.28;;;21.60;22.03
31044;BME280;17710;52.520;13.352;2023-05-08T12:48:16;102288.94;;;22.01;22.28
31044;BME280;17710;52.520;13.352;2023-05-08T12:50:44;102282.41;;;22.05;21.73
31044;BME280;17710;52.520;13.352;2023-05-08T12:53:13;102273.66;;;22.01;21.44
31044;BME280;17710;52.520;13.352;2023-05-08T12:55:49;102286.56;;;21.95;22.15
31044;BME280;17710;52.520;13.352;2023-05-08T12:58:16;102285.41;;;21.69;22.11